sensor_id;sensor_type;location;lat;lon;timestamp;temperature;humidity
17599;DHT22;8918;52.092;5.232;2023-07-24T00:01:08;18.60;99.90
17599;DHT22;8918;52.092;5.232;2023-07-24T00:03:34;18.50;99.90
17599;DHT22;8918;52.092;5.232;2023-07-24T00:06:00;18.60;99.90
17599;DHT22;8918;52.092;5.232;2023-07-24T00:08:25;18.50;99.90
17599;DHT22;8918;52.092;5.232;2023-07-24T00:10:51;18.50;99.90
17599;DHT22;8918;52.092;5.232;2023-07-24T00:13:16;18.50;99.90
17599;DHT22;8918;52.092;5.232;2023-07-24T00:15:42;18.50;99.90
17599;DHT22;8918;52.092;5.232;2023-07-24T00:18:07;18.50;99.90
17599;DHT22;8918;52.092;5.232;2023-07-24T00:20:33;18.50;99.90
17599;DHT22;8918;52.092;5.232;2023-07-24T00:22:58;18.40;99.90
17599;DHT22;8918;52.092;5.232;2023-07-24T00:25:24;18.40;99.90
17599;DHT22;8918;52.092;5.232;2023-07-24T00:27:50;18.30;99.90
17599;DHT22;8918;52.092;5.232;2023-07-24T00:30:15;18.30;99.90
17599;DHT22;8918;52.092;5.232;2023-07-24T00:32:41;18.30;99.90
17599;DHT22;8918;52.092;5.232;2023-07-24T00:35:07;18.20;99.90
17599;DHT22;8918;52.092;5.232;2023-07-24T00:37:32;18.20;99.90
17599;DHT22;8918;52.092;5.232;2023-07-24T00:39:58;18.20;99.90
17599;DHT22;8918;52.092;5.232;2023-07-24T00:42:24;18.20;99.90
17599;DHT22;8918;52.092;5.232;2023-07-24T00:44:49;18.20;99.90
17599;DHT22;8918;52.092;5.232;2023-07-24T00:47:15;18.20;99.90
17599;DHT22;8918;52.092;5.232;2023-07-24T00:49:41;18.20;99.90
17599;DHT22;8918;52.092;5.232;2023-07-24T00:52:07;18.20;99.90
17599;DHT22;8918;52.092;5.232;2023-07-24T00:54:34;18.20;99.90
17599;DHT22;8918;52.092;5.232;2023-07-24T00:57:01;18.20;99.90
17599;DHT22;8918;52.092;5.232;2023-07-24T00:59:27;18.20;99.90
17599;DHT22;8918;52.092;5.232;2023-07-24T01:01:53;18.20;99.90
17599;DHT22;8918;52.092;5.232;2023-07-24T01:04:18;18.20;99.90
17599;DHT22;8918;52.092;5.232;2023-07-24T01:06:45;18.10;99.90
17599;DHT22;8918;52.092;5.232;2023-07-24T01:09:10;18.20;99.90
17599;DHT22;8918;52.092;5.232;2023-07-24T01:11:41;18.20;99.90
17599;DHT22;8918;52.092;5.232;2023-07-24T01:16:42;18.20;99.90
17599;DHT22;8918;52.092;5.232;2023-07-24T01:25:10;18.20;99.90
17599;DHT22;8918;52.092;5.232;2023-07-24T01:27:43;18.20;99.90
17599;DHT22;8918;52.092;5.232;2023-07-24T01:30:09;18.20;99.90
17599;DHT22;8918;52.092;5.232;2023-07-24T01:32:35;18.20;99.90
17599;DHT22;8918;52.092;5.232;2023-07-24T01:35:01;18.20;99.90
17599;DHT22;8918;52.092;5.232;2023-07-24T01:37:27;18.20;99.90
17599;DHT22;8918;52.092;5.232;2023-07-24T01:39:53;18.20;99.90
17599;DHT22;8918;52.092;5.232;2023-07-24T01:42:20;18.20;99.90
17599;DHT22;8918;52.092;5.232;2023-07-24T01:44:51;18.10;99.90
17599;DHT22;8918;52.092;5.232;2023-07-24T01:47:17;18.20;99.90
17599;DHT22;8918;52.092;5.232;2023-07-24T01:49:42;18.10;99.90
17599;DHT22;8918;52.092;5.232;2023-07-24T01:52:08;18.10;99.90
17599;DHT22;8918;52.092;5.232;2023-07-24T01:54:33;18.10;99.90
17599;DHT22;8918;52.092;5.232;2023-07-24T01:56:59;18.10;99.90
17599;DHT22;8918;52.092;5.232;2023-07-24T01:59:25;18.10;99.90
17599;DHT22;8918;52.092;5.232;2023-07-24T02:01:50;18.10;99.90
17599;DHT22;8918;52.092;5.232;2023-07-24T02:04:16;18.10;99.90
17599;DHT22;8918;52.092;5.232;2023-07-24T02:06:41;18.10;99.90
17599;DHT22;8918;52.092;5.232;2023-07-24T02:09:07;18.10;99.90
17599;DHT22;8918;52.092;5.232;2023-07-24T02:11:33;18.00;99.90
17599;DHT22;8918;52.092;5.232;2023-07-24T02:13:59;18.00;99.90
17599;DHT22;8918;52.092;5.232;2023-07-24T02:16:24;18.00;99.90
17599;DHT22;8918;52.092;5.232;2023-07-24T02:18:50;18.00;99.90
17599;DHT22;8918;52.092;5.232;2023-07-24T02:21:16;18.00;99.90
17599;DHT22;8918;52.092;5.232;2023-07-24T02:23:41;18.00;99.90
17599;DHT22;8918;52.092;5.232;2023-07-24T02:26:07;18.00;99.90
17599;DHT22;8918;52.092;5.232;2023-07-24T02:28:32;18.00;99.90
17599;DHT22;8918;52.092;5.232;2023-07-24T02:30:58;18.00;99.90
17599;DHT22;8918;52.092;5.232;2023-07-24T02:33:25;17.90;99.90
17599;DHT22;8918;52.092;5.232;2023-07-24T02:35:52;17.90;99.90
17599;DHT22;8918;52.092;5.232;2023-07-24T02:38:18;17.90;99.90
17599;DHT22;8918;52.092;5.232;2023-07-24T02:40:44;17.90;99.90
17599;DHT22;8918;52.092;5.232;2023-07-24T02:43:10;17.90;99.90
17599;DHT22;8918;52.092;5.232;2023-07-24T02:45:37;17.90;99.90
17599;DHT22;8918;52.092;5.232;2023-07-24T02:48:02;17.90;99.90
17599;DHT22;8918;52.092;5.232;2023-07-24T02:50:28;17.90;99.90
17599;DHT22;8918;52.092;5.232;2023-07-24T02:52:54;17.90;99.90
17599;DHT22;8918;52.092;5.232;2023-07-24T02:55:20;17.90;99.90
17599;DHT22;8918;52.092;5.232;2023-07-24T02:57:45;17.90;99.90
17599;DHT22;8918;52.092;5.232;2023-07-24T03:00:12;17.90;99.90
17599;DHT22;8918;52.092;5.232;2023-07-24T03:02:38;17.90;99.90
17599;DHT22;8918;52.092;5.232;2023-07-24T03:05:04;17.90;99.90
17599;DHT22;8918;52.092;5.232;2023-07-24T03:07:30;17.80;99.90
17599;DHT22;8918;52.092;5.232;2023-07-24T03:09:55;17.80;99.90
17599;DHT22;8918;52.092;5.232;2023-07-24T03:12:21;17.80;99.90
17599;DHT22;8918;52.092;5.232;2023-07-24T03:14:47;17.80;99.90
17599;DHT22;8918;52.092;5.232;2023-07-24T03:17:13;17.80;99.90
17599;DHT22;8918;52.092;5.232;2023-07-24T03:19:39;17.70;99.90
17599;DHT22;8918;52.092;5.232;2023-07-24T03:22:05;17.70;99.90
17599;DHT22;8918;52.092;5.232;2023-07-24T03:24:31;17.70;99.90
17599;DHT22;8918;52.092;5.232;2023-07-24T03:26:56;17.70;99.90
17599;DHT22;8918;52.092;5.232;2023-07-24T03:29:22;17.70;99.90
17599;DHT22;8918;52.092;5.232;2023-07-24T03:31:48;17.70;99.90
17599;DHT22;8918;52.092;5.232;2023-07-24T03:34:13;17.70;99.90
17599;DHT22;8918;52.092;5.232;2023-07-24T03:36:39;17.70;99.90
17599;DHT22;8918;52.092;5.232;2023-07-24T03:39:07;17.70;99.90
17599;DHT22;8918;52.092;5.232;2023-07-24T03:41:32;17.80;99.90
17599;DHT22;8918;52.092;5.232;2023-07-24T03:43:58;17.70;99.90
17599;DHT22;8918;52.092;5.232;2023-07-24T03:46:24;17.70;99.90
17599;DHT22;8918;52.092;5.232;2023-07-24T03:48:50;17.70;99.90
17599;DHT22;8918;52.092;5.232;2023-07-24T03:51:16;17.70;99.90
17599;DHT22;8918;52.092;5.232;2023-07-24T03:53:42;17.70;99.90
17599;DHT22;8918;52.092;5.232;2023-07-24T03:56:07;17.70;99.90
17599;DHT22;8918;52.092;5.232;2023-07-24T03:58:33;17.60;99.90
17599;DHT22;8918;52.092;5.232;2023-07-24T04:00:58;17.60;99.90
17599;DHT22;8918;52.092;5.232;2023-07-24T04:03:24;17.60;99.90
17599;DHT22;8918;52.092;5.232;2023-07-24T04:05:50;17.60;99.90
17599;DHT22;8918;52.092;5.232;2023-07-24T04:08:15;17.60;99.90
17599;DHT22;8918;52.092;5.232;2023-07-24T04:10:41;17.50;99.90
17599;DHT22;8918;52.092;5.232;2023-07-24T04:13:06;17.50;99.90
17599;DHT22;8918;52.092;5.232;2023-07-24T04:15:32;17.50;99.90
17599;DHT22;8918;52.092;5.232;2023-07-24T04:17:57;17.40;99.90
17599;DHT22;8918;52.092;5.232;2023-07-24T04:20:23;17.40;99.90
17599;DHT22;8918;52.092;5.232;2023-07-24T04:22:49;17.40;99.90
17599;DHT22;8918;52.092;5.232;2023-07-24T04:25:14;17.40;99.90
17599;DHT22;8918;52.092;5.232;2023-07-24T04:27:41;17.40;99.90
17599;DHT22;8918;52.092;5.232;2023-07-24T04:30:07;17.40;99.90
17599;DHT22;8918;52.092;5.232;2023-07-24T04:32:32;17.30;99.90
17599;DHT22;8918;52.092;5.232;2023-07-24T04:34:58;17.40;99.90
17599;DHT22;8918;52.092;5.232;2023-07-24T04:37:24;17.30;99.90
17599;DHT22;8918;52.092;5.232;2023-07-24T04:39:49;17.30;99.90
17599;DHT22;8918;52.092;5.232;2023-07-24T04:42:15;17.30;99.90
17599;DHT22;8918;52.092;5.232;2023-07-24T04:44:40;17.30;99.90
17599;DHT22;8918;52.092;5.232;2023-07-24T04:47:06;17.30;99.90
17599;DHT22;8918;52.092;5.232;2023-07-24T04:49:32;17.30;99.90
17599;DHT22;8918;52.092;5.232;2023-07-24T04:51:58;17.30;99.90
17599;DHT22;8918;52.092;5.232;2023-07-24T04:54:24;17.30;99.90
17599;DHT22;8918;52.092;5.232;2023-07-24T04:56:50;17.30;99.90
17599;DHT22;8918;52.092;5.232;2023-07-24T04:59:16;17.30;99.90
17599;DHT22;8918;52.092;5.232;2023-07-24T05:01:41;17.20;99.90
17599;DHT22;8918;52.092;5.232;2023-07-24T05:04:07;17.30;99.90
17599;DHT22;8918;52.092;5.232;2023-07-24T05:06:32;17.30;99.90
17599;DHT22;8918;52.092;5.232;2023-07-24T05:09:01;17.30;99.90
17599;DHT22;8918;52.092;5.232;2023-07-24T05:11:26;17.30;99.90
17599;DHT22;8918;52.092;5.232;2023-07-24T05:13:52;17.30;99.90
17599;DHT22;8918;52.092;5.232;2023-07-24T05:16:17;17.30;99.90
17599;DHT22;8918;52.092;5.232;2023-07-24T05:18:43;17.30;99.90
17599;DHT22;8918;52.092;5.232;2023-07-24T05:21:08;17.30;99.90
17599;DHT22;8918;52.092;5.232;2023-07-24T05:23:34;17.40;99.90
17599;DHT22;8918;52.092;5.232;2023-07-24T05:26:01;17.40;99.90
17599;DHT22;8918;52.092;5.232;2023-07-24T05:28:27;17.30;99.90
17599;DHT22;8918;52.092;5.232;2023-07-24T05:30:53;17.30;99.90
17599;DHT22;8918;52.092;5.232;2023-07-24T05:33:19;17.40;99.90
17599;DHT22;8918;52.092;5.232;2023-07-24T05:35:44;17.40;99.90
17599;DHT22;8918;52.092;5.232;2023-07-24T05:38:10;17.40;99.90
17599;DHT22;8918;52.092;5.232;2023-07-24T05:40:36;17.40;99.90
17599;DHT22;8918;52.092;5.232;2023-07-24T05:43:01;17.50;99.90
17599;DHT22;8918;52.092;5.232;2023-07-24T05:45:27;17.40;99.90
17599;DHT22;8918;52.092;5.232;2023-07-24T05:47:53;17.50;99.90
17599;DHT22;8918;52.092;5.232;2023-07-24T05:50:19;17.40;99.90
17599;DHT22;8918;52.092;5.232;2023-07-24T05:52:44;17.40;99.90
17599;DHT22;8918;52.092;5.232;2023-07-24T05:55:10;17.40;99.90
17599;DHT22;8918;52.092;5.232;2023-07-24T05:57:36;17.40;99.90
17599;DHT22;8918;52.092;5.232;2023-07-24T06:00:04;17.50;99.90
17599;DHT22;8918;52.092;5.232;2023-07-24T06:02:30;17.50;99.90
17599;DHT22;8918;52.092;5.232;2023-07-24T06:04:55;17.50;99.90
17599;DHT22;8918;52.092;5.232;2023-07-24T06:07:21;17.50;99.90
17599;DHT22;8918;52.092;5.232;2023-07-24T06:09:46;17.60;99.90
17599;DHT22;8918;52.092;5.232;2023-07-24T06:12:12;17.60;99.90
17599;DHT22;8918;52.092;5.232;2023-07-24T06:14:37;17.70;99.90
17599;DHT22;8918;52.092;5.232;2023-07-24T06:17:03;17.70;99.90
17599;DHT22;8918;52.092;5.232;2023-07-24T06:19:29;17.80;99.90
17599;DHT22;8918;52.092;5.232;2023-07-24T06:21:55;17.80;99.90
17599;DHT22;8918;52.092;5.232;2023-07-24T06:24:20;17.80;99.90
17599;DHT22;8918;52.092;5.232;2023-07-24T06:26:46;17.80;99.90
17599;DHT22;8918;52.092;5.232;2023-07-24T06:29:12;17.80;99.90
17599;DHT22;8918;52.092;5.232;2023-07-24T06:31:37;17.80;99.90
17599;DHT22;8918;52.092;5.232;2023-07-24T06:34:03;17.80;99.90
17599;DHT22;8918;52.092;5.232;2023-07-24T06:36:28;17.80;99.90
17599;DHT22;8918;52.092;5.232;2023-07-24T06:38:54;17.80;99.90
17599;DHT22;8918;52.092;5.232;2023-07-24T06:41:19;17.90;99.90
17599;DHT22;8918;52.092;5.232;2023-07-24T06:43:46;17.90;99.90
17599;DHT22;8918;52.092;5.232;2023-07-24T06:46:12;17.90;99.90
17599;DHT22;8918;52.092;5.232;2023-07-24T06:48:38;17.90;99.90
17599;DHT22;8918;52.092;5.232;2023-07-24T06:51:03;17.90;99.90
17599;DHT22;8918;52.092;5.232;2023-07-24T06:53:29;18.00;99.90
17599;DHT22;8918;52.092;5.232;2023-07-24T06:55:54;18.00;99.90
17599;DHT22;8918;52.092;5.232;2023-07-24T06:58:20;18.10;99.90
17599;DHT22;8918;52.092;5.232;2023-07-24T07:00:53;18.20;99.90
17599;DHT22;8918;52.092;5.232;2023-07-24T07:03:19;18.30;99.90
17599;DHT22;8918;52.092;5.232;2023-07-24T07:05:44;18.40;99.90
17599;DHT22;8918;52.092;5.232;2023-07-24T07:08:10;18.60;99.90
17599;DHT22;8918;52.092;5.232;2023-07-24T07:10:35;18.60;99.90
17599;DHT22;8918;52.092;5.232;2023-07-24T07:13:01;18.70;99.90
17599;DHT22;8918;52.092;5.232;2023-07-24T07:15:27;18.70;99.90
17599;DHT22;8918;52.092;5.232;2023-07-24T07:17:52;18.70;99.90
17599;DHT22;8918;52.092;5.232;2023-07-24T07:20:18;18.70;99.90
17599;DHT22;8918;52.092;5.232;2023-07-24T07:22:43;18.70;99.90
17599;DHT22;8918;52.092;5.232;2023-07-24T07:25:09;18.70;99.90
17599;DHT22;8918;52.092;5.232;2023-07-24T07:27:34;18.70;99.90
17599;DHT22;8918;52.092;5.232;2023-07-24T07:30:00;18.70;99.90
17599;DHT22;8918;52.092;5.232;2023-07-24T07:32:26;18.60;99.90
17599;DHT22;8918;52.092;5.232;2023-07-24T07:34:52;18.60;99.90
17599;DHT22;8918;52.092;5.232;2023-07-24T07:37:18;18.70;99.90
17599;DHT22;8918;52.092;5.232;2023-07-24T07:39:43;18.70;99.90
17599;DHT22;8918;52.092;5.232;2023-07-24T07:42:09;18.70;99.90
17599;DHT22;8918;52.092;5.232;2023-07-24T07:44:34;18.70;99.90
17599;DHT22;8918;52.092;5.232;2023-07-24T07:47:00;18.70;99.90
17599;DHT22;8918;52.092;5.232;2023-07-24T07:49:25;18.70;99.90
17599;DHT22;8918;52.092;5.232;2023-07-24T07:51:51;18.80;99.90
17599;DHT22;8918;52.092;5.232;2023-07-24T07:54:17;18.80;99.90
17599;DHT22;8918;52.092;5.232;2023-07-24T07:56:42;18.90;99.90
17599;DHT22;8918;52.092;5.232;2023-07-24T07:59:08;19.00;99.90
17599;DHT22;8918;52.092;5.232;2023-07-24T08:01:35;19.00;99.90
17599;DHT22;8918;52.092;5.232;2023-07-24T08:04:01;19.10;99.90
17599;DHT22;8918;52.092;5.232;2023-07-24T08:06:26;19.10;99.90
17599;DHT22;8918;52.092;5.232;2023-07-24T08:08:52;19.10;99.90
17599;DHT22;8918;52.092;5.232;2023-07-24T08:11:18;19.20;99.90
17599;DHT22;8918;52.092;5.232;2023-07-24T08:13:43;19.20;99.90
17599;DHT22;8918;52.092;5.232;2023-07-24T08:16:15;19.20;99.90
17599;DHT22;8918;52.092;5.232;2023-07-24T08:18:47;19.20;99.90
17599;DHT22;8918;52.092;5.232;2023-07-24T08:21:14;19.30;99.90
17599;DHT22;8918;52.092;5.232;2023-07-24T08:23:40;19.20;99.90
17599;DHT22;8918;52.092;5.232;2023-07-24T08:26:06;19.30;99.90
17599;DHT22;8918;52.092;5.232;2023-07-24T08:28:33;19.30;99.90
17599;DHT22;8918;52.092;5.232;2023-07-24T08:31:00;19.30;99.90
17599;DHT22;8918;52.092;5.232;2023-07-24T08:33:27;19.20;99.90
17599;DHT22;8918;52.092;5.232;2023-07-24T08:36:04;19.20;99.90
17599;DHT22;8918;52.092;5.232;2023-07-24T08:38:34;19.20;99.90
17599;DHT22;8918;52.092;5.232;2023-07-24T08:41:05;19.30;99.90
17599;DHT22;8918;52.092;5.232;2023-07-24T08:43:33;19.40;99.90
17599;DHT22;8918;52.092;5.232;2023-07-24T08:46:00;19.50;99.90
17599;DHT22;8918;52.092;5.232;2023-07-24T08:48:40;19.70;99.90
17599;DHT22;8918;52.092;5.232;2023-07-24T08:51:11;20.00;99.90
17599;DHT22;8918;52.092;5.232;2023-07-24T08:53:39;20.20;99.90
17599;DHT22;8918;52.092;5.232;2023-07-24T08:56:06;20.20;99.90
17599;DHT22;8918;52.092;5.232;2023-07-24T08:58:33;20.20;99.90
17599;DHT22;8918;52.092;5.232;2023-07-24T09:01:00;20.10;99.90
17599;DHT22;8918;52.092;5.232;2023-07-24T09:03:26;20.10;99.90
17599;DHT22;8918;52.092;5.232;2023-07-24T09:05:52;20.00;99.90
17599;DHT22;8918;52.092;5.232;2023-07-24T09:08:35;20.00;99.90
17599;DHT22;8918;52.092;5.232;2023-07-24T09:11:02;20.00;99.90
17599;DHT22;8918;52.092;5.232;2023-07-24T09:13:29;19.90;99.90
17599;DHT22;8918;52.092;5.232;2023-07-24T09:15:55;19.90;99.90
17599;DHT22;8918;52.092;5.232;2023-07-24T09:18:21;19.90;99.90
17599;DHT22;8918;52.092;5.232;2023-07-24T09:20:47;19.70;99.90
17599;DHT22;8918;52.092;5.232;2023-07-24T09:23:14;19.60;99.90
17599;DHT22;8918;52.092;5.232;2023-07-24T09:25:41;19.60;99.90
17599;DHT22;8918;52.092;5.232;2023-07-24T09:28:17;19.50;99.90
17599;DHT22;8918;52.092;5.232;2023-07-24T09:30:53;19.40;99.90
17599;DHT22;8918;52.092;5.232;2023-07-24T09:33:19;19.30;99.90
17599;DHT22;8918;52.092;5.232;2023-07-24T09:35:44;19.30;99.90
17599;DHT22;8918;52.092;5.232;2023-07-24T09:38:11;19.30;99.90
17599;DHT22;8918;52.092;5.232;2023-07-24T09:40:45;19.30;99.90
17599;DHT22;8918;52.092;5.232;2023-07-24T09:43:15;19.40;99.90
17599;DHT22;8918;52.092;5.232;2023-07-24T09:45:43;19.50;99.90
17599;DHT22;8918;52.092;5.232;2023-07-24T09:48:09;19.50;99.90
17599;DHT22;8918;52.092;5.232;2023-07-24T09:50:38;19.60;99.90
17599;DHT22;8918;52.092;5.232;2023-07-24T09:53:05;19.70;99.90
17599;DHT22;8918;52.092;5.232;2023-07-24T09:55:38;19.80;99.90
17599;DHT22;8918;52.092;5.232;2023-07-24T09:58:07;20.00;99.90
17599;DHT22;8918;52.092;5.232;2023-07-24T10:00:33;20.10;99.90
17599;DHT22;8918;52.092;5.232;2023-07-24T10:02:59;20.20;99.90
17599;DHT22;8918;52.092;5.232;2023-07-24T10:05:25;20.30;99.90
17599;DHT22;8918;52.092;5.232;2023-07-24T10:07:52;20.30;99.90
17599;DHT22;8918;52.092;5.232;2023-07-24T10:10:18;20.40;99.90
17599;DHT22;8918;52.092;5.232;2023-07-24T10:12:44;20.30;99.90
17599;DHT22;8918;52.092;5.232;2023-07-24T10:15:10;20.30;99.90
17599;DHT22;8918;52.092;5.232;2023-07-24T10:17:37;20.20;99.90
17599;DHT22;8918;52.092;5.232;2023-07-24T10:20:08;20.10;99.90
17599;DHT22;8918;52.092;5.232;2023-07-24T10:22:34;19.90;99.90
17599;DHT22;8918;52.092;5.232;2023-07-24T10:25:01;20.00;99.90
17599;DHT22;8918;52.092;5.232;2023-07-24T10:27:26;20.10;99.90
17599;DHT22;8918;52.092;5.232;2023-07-24T10:30:00;20.10;99.90
17599;DHT22;8918;52.092;5.232;2023-07-24T10:32:28;20.30;99.90
17599;DHT22;8918;52.092;5.232;2023-07-24T10:35:06;20.50;99.90
17599;DHT22;8918;52.092;5.232;2023-07-24T10:37:36;20.80;99.90
17599;DHT22;8918;52.092;5.232;2023-07-24T10:40:03;21.00;99.90
17599;DHT22;8918;52.092;5.232;2023-07-24T10:42:30;21.20;99.90
17599;DHT22;8918;52.092;5.232;2023-07-24T10:45:06;21.40;99.90
17599;DHT22;8918;52.092;5.232;2023-07-24T10:47:32;21.70;99.90
17599;DHT22;8918;52.092;5.232;2023-07-24T10:49:58;21.90;99.90
17599;DHT22;8918;52.092;5.232;2023-07-24T10:52:30;22.10;99.90
17599;DHT22;8918;52.092;5.232;2023-07-24T10:54:56;22.30;99.90
17599;DHT22;8918;52.092;5.232;2023-07-24T10:57:26;22.30;99.90
17599;DHT22;8918;52.092;5.232;2023-07-24T10:59:52;22.30;99.90
17599;DHT22;8918;52.092;5.232;2023-07-24T11:02:18;22.10;99.90
17599;DHT22;8918;52.092;5.232;2023-07-24T11:04:44;22.00;99.90
17599;DHT22;8918;52.092;5.232;2023-07-24T11:07:09;21.70;99.90
17599;DHT22;8918;52.092;5.232;2023-07-24T11:09:39;21.60;99.90
17599;DHT22;8918;52.092;5.232;2023-07-24T11:12:10;21.70;99.90
17599;DHT22;8918;52.092;5.232;2023-07-24T11:14:45;21.80;99.90
17599;DHT22;8918;52.092;5.232;2023-07-24T11:17:10;22.00;99.90
17599;DHT22;8918;52.092;5.232;2023-07-24T11:19:36;22.20;99.90
17599;DHT22;8918;52.092;5.232;2023-07-24T11:22:01;22.40;99.90
17599;DHT22;8918;52.092;5.232;2023-07-24T11:24:29;22.50;99.90
17599;DHT22;8918;52.092;5.232;2023-07-24T11:26:54;22.50;99.90
17599;DHT22;8918;52.092;5.232;2023-07-24T11:29:20;22.40;99.90
17599;DHT22;8918;52.092;5.232;2023-07-24T11:31:45;22.10;99.90
17599;DHT22;8918;52.092;5.232;2023-07-24T11:34:11;21.90;99.90
17599;DHT22;8918;52.092;5.232;2023-07-24T11:36:37;21.60;99.90
17599;DHT22;8918;52.092;5.232;2023-07-24T11:39:03;21.40;99.90
17599;DHT22;8918;52.092;5.232;2023-07-24T11:41:29;21.20;99.90
17599;DHT22;8918;52.092;5.232;2023-07-24T11:43:55;21.20;99.90
17599;DHT22;8918;52.092;5.232;2023-07-24T11:46:28;21.20;99.90
17599;DHT22;8918;52.092;5.232;2023-07-24T11:48:55;21.20;99.90
17599;DHT22;8918;52.092;5.232;2023-07-24T11:51:22;21.20;99.90
17599;DHT22;8918;52.092;5.232;2023-07-24T11:53:50;21.20;99.90
17599;DHT22;8918;52.092;5.232;2023-07-24T11:56:17;21.20;99.90
17599;DHT22;8918;52.092;5.232;2023-07-24T11:58:42;21.00;99.90
17599;DHT22;8918;52.092;5.232;2023-07-24T12:01:08;21.00;99.90
17599;DHT22;8918;52.092;5.232;2023-07-24T12:03:35;20.90;99.90
17599;DHT22;8918;52.092;5.232;2023-07-24T12:06:00;20.90;99.90
17599;DHT22;8918;52.092;5.232;2023-07-24T12:08:33;20.90;99.90
17599;DHT22;8918;52.092;5.232;2023-07-24T12:10:59;20.90;99.90
17599;DHT22;8918;52.092;5.232;2023-07-24T12:13:24;21.00;99.90
17599;DHT22;8918;52.092;5.232;2023-07-24T12:15:50;21.20;99.90
17599;DHT22;8918;52.092;5.232;2023-07-24T12:18:16;21.30;99.90
17599;DHT22;8918;52.092;5.232;2023-07-24T12:20:41;21.50;99.90
17599;DHT22;8918;52.092;5.232;2023-07-24T12:23:07;21.60;99.90
17599;DHT22;8918;52.092;5.232;2023-07-24T12:25:33;21.80;99.90
17599;DHT22;8918;52.092;5.232;2023-07-24T12:27:58;21.80;99.90
17599;DHT22;8918;52.092;5.232;2023-07-24T12:30:24;21.70;99.90
17599;DHT22;8918;52.092;5.232;2023-07-24T12:32:50;21.50;99.90
17599;DHT22;8918;52.092;5.232;2023-07-24T12:35:16;21.40;99.90
17599;DHT22;8918;52.092;5.232;2023-07-24T12:37:42;21.20;99.90
17599;DHT22;8918;52.092;5.232;2023-07-24T12:40:08;21.00;99.90
17599;DHT22;8918;52.092;5.232;2023-07-24T12:42:34;20.80;99.90
17599;DHT22;8918;52.092;5.232;2023-07-24T12:45:00;20.60;99.90
17599;DHT22;8918;52.092;5.232;2023-07-24T12:47:28;20.50;99.90
17599;DHT22;8918;52.092;5.232;2023-07-24T12:49:53;20.40;99.90
17599;DHT22;8918;52.092;5.232;2023-07-24T12:52:21;20.30;99.90
17599;DHT22;8918;52.092;5.232;2023-07-24T12:54:46;20.20;99.90
17599;DHT22;8918;52.092;5.232;2023-07-24T12:57:12;20.20;99.90
17599;DHT22;8918;52.092;5.232;2023-07-24T12:59:38;20.20;99.90
17599;DHT22;8918;52.092;5.232;2023-07-24T13:02:03;20.10;99.90
17599;DHT22;8918;52.092;5.232;2023-07-24T13:04:29;20.10;99.90
17599;DHT22;8918;52.092;5.232;2023-07-24T13:06:55;20.10;99.90
17599;DHT22;8918;52.092;5.232;2023-07-24T13:09:20;20.00;99.90
17599;DHT22;8918;52.092;5.232;2023-07-24T13:11:46;19.90;99.90
17599;DHT22;8918;52.092;5.232;2023-07-24T13:14:14;19.90;99.90
17599;DHT22;8918;52.092;5.232;2023-07-24T13:16:40;19.80;99.90
17599;DHT22;8918;52.092;5.232;2023-07-24T13:19:05;19.70;99.90
17599;DHT22;8918;52.092;5.232;2023-07-24T13:21:32;19.60;99.90
17599;DHT22;8918;52.092;5.232;2023-07-24T13:23:57;19.50;99.90
17599;DHT22;8918;52.092;5.232;2023-07-24T13:26:23;19.40;99.90
17599;DHT22;8918;52.092;5.232;2023-07-24T13:28:48;19.20;99.90
17599;DHT22;8918;52.092;5.232;2023-07-24T13:31:19;19.20;99.90
17599;DHT22;8918;52.092;5.232;2023-07-24T13:33:45;19.10;99.90
17599;DHT22;8918;52.092;5.232;2023-07-24T13:36:11;19.00;99.90
17599;DHT22;8918;52.092;5.232;2023-07-24T13:38:36;19.00;99.90
17599;DHT22;8918;52.092;5.232;2023-07-24T13:41:02;18.90;99.90
17599;DHT22;8918;52.092;5.232;2023-07-24T13:43:30;18.90;99.90
17599;DHT22;8918;52.092;5.232;2023-07-24T13:45:56;18.90;99.90
17599;DHT22;8918;52.092;5.232;2023-07-24T13:48:22;19.00;99.90
17599;DHT22;8918;52.092;5.232;2023-07-24T13:50:47;19.20;99.90
17599;DHT22;8918;52.092;5.232;2023-07-24T13:53:13;19.20;99.90
17599;DHT22;8918;52.092;5.232;2023-07-24T13:55:38;19.30;99.90
17599;DHT22;8918;52.092;5.232;2023-07-24T13:58:04;19.30;99.90
17599;DHT22;8918;52.092;5.232;2023-07-24T14:00:29;19.30;99.90
17599;DHT22;8918;52.092;5.232;2023-07-24T14:02:55;19.40;99.90
17599;DHT22;8918;52.092;5.232;2023-07-24T14:05:21;19.40;99.90
17599;DHT22;8918;52.092;5.232;2023-07-24T14:07:46;19.50;99.90
17599;DHT22;8918;52.092;5.232;2023-07-24T14:10:12;19.60;99.90
17599;DHT22;8918;52.092;5.232;2023-07-24T14:12:37;19.60;99.90
17599;DHT22;8918;52.092;5.232;2023-07-24T14:15:04;19.60;99.90
17599;DHT22;8918;52.092;5.232;2023-07-24T14:17:29;19.70;99.90
17599;DHT22;8918;52.092;5.232;2023-07-24T14:19:55;19.80;99.90
17599;DHT22;8918;52.092;5.232;2023-07-24T14:22:21;19.90;99.90
17599;DHT22;8918;52.092;5.232;2023-07-24T14:24:46;19.90;99.90
17599;DHT22;8918;52.092;5.232;2023-07-24T14:27:15;20.00;99.90
17599;DHT22;8918;52.092;5.232;2023-07-24T14:29:41;20.10;99.90
17599;DHT22;8918;52.092;5.232;2023-07-24T14:32:07;20.10;99.90
17599;DHT22;8918;52.092;5.232;2023-07-24T14:34:33;20.20;99.90
17599;DHT22;8918;52.092;5.232;2023-07-24T14:36:58;20.10;99.90
17599;DHT22;8918;52.092;5.232;2023-07-24T14:39:24;20.10;99.90
17599;DHT22;8918;52.092;5.232;2023-07-24T14:41:50;20.20;99.90
17599;DHT22;8918;52.092;5.232;2023-07-24T14:44:15;20.40;99.90
17599;DHT22;8918;52.092;5.232;2023-07-24T14:46:41;20.30;99.90
17599;DHT22;8918;52.092;5.232;2023-07-24T14:49:06;20.30;99.90
17599;DHT22;8918;52.092;5.232;2023-07-24T14:51:32;20.40;99.90
17599;DHT22;8918;52.092;5.232;2023-07-24T14:53:58;20.40;99.90
17599;DHT22;8918;52.092;5.232;2023-07-24T14:56:23;20.40;99.90
17599;DHT22;8918;52.092;5.232;2023-07-24T14:58:49;20.50;99.90
17599;DHT22;8918;52.092;5.232;2023-07-24T15:01:15;20.60;99.90
17599;DHT22;8918;52.092;5.232;2023-07-24T15:03:40;20.70;99.90
17599;DHT22;8918;52.092;5.232;2023-07-24T15:06:06;20.80;99.90
17599;DHT22;8918;52.092;5.232;2023-07-24T15:08:33;20.80;99.90
17599;DHT22;8918;52.092;5.232;2023-07-24T15:10:58;20.70;99.90
17599;DHT22;8918;52.092;5.232;2023-07-24T15:13:24;20.60;99.90
17599;DHT22;8918;52.092;5.232;2023-07-24T15:15:50;20.50;99.90
17599;DHT22;8918;52.092;5.232;2023-07-24T15:18:15;20.40;99.90
17599;DHT22;8918;52.092;5.232;2023-07-24T15:20:41;20.40;99.90
17599;DHT22;8918;52.092;5.232;2023-07-24T15:23:06;20.30;99.90
17599;DHT22;8918;52.092;5.232;2023-07-24T15:25:32;20.30;99.90
17599;DHT22;8918;52.092;5.232;2023-07-24T15:27:58;20.20;99.90
17599;DHT22;8918;52.092;5.232;2023-07-24T15:30:24;20.20;99.90
17599;DHT22;8918;52.092;5.232;2023-07-24T15:32:50;20.20;99.90
17599;DHT22;8918;52.092;5.232;2023-07-24T15:35:15;20.30;99.90
17599;DHT22;8918;52.092;5.232;2023-07-24T15:37:41;20.30;99.90
17599;DHT22;8918;52.092;5.232;2023-07-24T15:40:07;20.20;99.90
17599;DHT22;8918;52.092;5.232;2023-07-24T15:42:33;20.10;99.90
17599;DHT22;8918;52.092;5.232;2023-07-24T15:44:58;19.90;99.90
17599;DHT22;8918;52.092;5.232;2023-07-24T15:47:24;19.70;99.90